createdAt,value
2017-11-20T00:00:32.897Z,6.93
2017-11-20T00:03:00.570Z,3.63
2017-11-20T00:05:28.212Z,3.43
2017-11-20T00:07:55.883Z,4.50
2017-11-20T00:10:23.524Z,4.30
2017-11-20T00:12:51.199Z,2.40
2017-11-20T00:15:18.838Z,2.80
2017-11-20T00:17:46.534Z,7.40
2017-11-20T00:20:14.189Z,4.70
2017-11-20T00:22:41.864Z,1.97
2017-11-20T00:25:09.511Z,4.97
2017-11-20T00:27:37.196Z,4.53
2017-11-20T00:30:04.865Z,5.17
2017-11-20T00:32:32.552Z,2.50
2017-11-20T00:35:00.186Z,6.43
2017-11-20T00:37:27.869Z,10.30
2017-11-20T00:39:55.555Z,4.30
2017-11-20T00:42:23.228Z,5.00
2017-11-20T00:44:50.919Z,6.93
2017-11-20T00:47:18.554Z,3.50
2017-11-20T00:49:46.230Z,3.07
2017-11-20T00:52:13.917Z,3.87
2017-11-20T00:54:41.598Z,2.70
2017-11-20T00:57:09.251Z,4.33
2017-11-20T00:59:36.939Z,8.17
2017-11-20T01:02:04.567Z,4.73
2017-11-20T01:04:32.253Z,15.37
2017-11-20T01:06:59.900Z,5.77
2017-11-20T01:09:27.593Z,7.60
2017-11-20T01:11:55.227Z,5.43
2017-11-20T01:14:22.929Z,7.40
2017-11-20T01:16:50.576Z,6.40
2017-11-20T01:19:18.292Z,4.90
2017-11-20T01:21:45.956Z,8.60
2017-11-20T01:24:13.612Z,9.83
2017-11-20T01:26:41.328Z,8.17
2017-11-20T01:29:08.983Z,5.03
2017-11-20T01:31:36.661Z,5.80
2017-11-20T01:34:04.370Z,8.77
2017-11-20T01:36:32.060Z,6.07
2017-11-20T01:38:59.721Z,7.57
2017-11-20T01:41:27.616Z,7.30
2017-11-20T01:43:55.270Z,6.73
2017-11-20T01:46:22.958Z,8.67
2017-11-20T01:48:50.607Z,6.30
2017-11-20T01:51:18.352Z,4.20
2017-11-20T01:53:46.013Z,9.43
2017-11-20T01:56:13.695Z,8.63
2017-11-20T01:58:41.369Z,6.93
2017-11-20T02:01:09.063Z,4.87
2017-11-20T02:03:36.732Z,8.13
2017-11-20T02:06:04.421Z,6.27
2017-11-20T02:08:32.064Z,3.37
2017-11-20T02:10:59.745Z,4.00
2017-11-20T02:13:27.415Z,5.97
2017-11-20T02:15:55.123Z,7.57
2017-11-20T02:18:22.783Z,8.53
2017-11-20T02:20:50.481Z,6.80
2017-11-20T02:23:18.149Z,5.70
2017-11-20T02:25:45.828Z,4.17
2017-11-20T02:28:13.505Z,3.40
2017-11-20T02:30:41.153Z,4.67
2017-11-20T02:33:08.834Z,5.60
2017-11-20T02:35:36.479Z,3.77
2017-11-20T02:38:04.181Z,9.53
2017-11-20T02:40:31.815Z,3.03
2017-11-20T02:42:59.497Z,3.73
2017-11-20T02:45:27.147Z,5.00
2017-11-20T02:47:54.835Z,5.67
2017-11-20T02:50:22.479Z,3.87
2017-11-20T02:52:50.196Z,5.60
2017-11-20T02:55:17.865Z,8.83
2017-11-20T02:57:45.572Z,4.53
2017-11-20T03:00:13.235Z,6.40
2017-11-20T03:02:40.927Z,4.37
2017-11-20T03:05:08.563Z,2.50
2017-11-20T03:07:36.249Z,3.07
2017-11-20T03:10:03.906Z,5.30
2017-11-20T03:12:31.579Z,3.87
2017-11-20T03:14:59.903Z,7.00
2017-11-20T03:17:27.574Z,6.47
2017-11-20T03:19:55.224Z,3.50
2017-11-20T03:22:22.909Z,4.00
2017-11-20T03:24:50.579Z,5.17
2017-11-20T03:27:18.239Z,3.30
2017-11-20T03:29:45.937Z,4.43
2017-11-20T03:32:13.593Z,4.60
2017-11-20T03:34:41.273Z,6.10
2017-11-20T03:37:08.948Z,4.67
2017-11-20T03:39:36.657Z,3.27
2017-11-20T03:42:04.304Z,6.40
2017-11-20T03:44:31.988Z,3.77
2017-11-20T03:46:59.632Z,7.47
2017-11-20T03:49:27.330Z,4.17
2017-11-20T03:51:55.009Z,6.07
2017-11-20T03:54:22.718Z,7.30
2017-11-20T03:56:50.373Z,7.80
2017-11-20T03:59:18.048Z,7.90
2017-11-20T04:01:45.705Z,9.33
2017-11-20T04:04:13.393Z,5.67
2017-11-20T04:06:41.033Z,3.00
2017-11-20T04:09:08.711Z,4.77
2017-11-20T04:11:36.365Z,4.40
2017-11-20T04:14:04.057Z,5.43
2017-11-20T04:16:31.697Z,5.33
2017-11-20T04:18:59.380Z,9.10
2017-11-20T04:21:27.021Z,5.43
2017-11-20T04:23:54.713Z,2.93
2017-11-20T04:26:22.367Z,9.10
2017-11-20T04:28:50.014Z,5.40
2017-11-20T04:31:17.733Z,6.30
2017-11-20T04:33:45.420Z,6.00
2017-11-20T04:36:13.167Z,6.07
2017-11-20T04:38:40.798Z,4.80
2017-11-20T04:41:08.496Z,4.80
2017-11-20T04:43:36.160Z,7.20
2017-11-20T04:46:03.838Z,4.53
2017-11-20T04:48:31.488Z,7.00
2017-11-20T04:50:59.243Z,7.20
2017-11-20T04:53:26.981Z,6.10
2017-11-20T04:55:54.774Z,8.50
2017-11-20T04:58:22.416Z,7.37
2017-11-20T05:00:50.143Z,16.73
2017-11-20T05:03:17.796Z,10.83
2017-11-20T05:05:45.495Z,10.73
2017-11-20T05:08:13.144Z,6.30
2017-11-20T05:10:40.825Z,6.87
2017-11-20T05:13:08.463Z,8.40
2017-11-20T05:15:37.087Z,16.17
2017-11-20T05:18:04.734Z,8.67
2017-11-20T05:20:32.420Z,9.30
2017-11-20T05:23:00.027Z,8.73
2017-11-20T05:25:27.688Z,10.00
2017-11-20T05:27:55.376Z,9.67
2017-11-20T05:30:23.016Z,9.47
2017-11-20T05:32:50.703Z,7.77
2017-11-20T05:35:18.344Z,9.90
2017-11-20T05:37:46.074Z,11.10
2017-11-20T05:40:13.722Z,12.00
2017-11-20T05:42:41.426Z,17.50
2017-11-20T05:45:09.074Z,8.23
2017-11-20T05:47:36.758Z,7.80
2017-11-20T05:50:04.428Z,12.60
2017-11-20T05:52:35.222Z,8.43
2017-11-20T05:55:02.893Z,8.40
2017-11-20T05:57:30.597Z,11.10
2017-11-20T05:59:58.262Z,10.27
2017-11-20T06:02:25.961Z,14.93
2017-11-20T06:04:53.619Z,14.07
2017-11-20T06:07:21.322Z,13.40
2017-11-20T06:09:48.972Z,9.20
2017-11-20T06:12:16.658Z,14.80
2017-11-20T06:14:44.353Z,10.83
2017-11-20T06:17:12.010Z,16.70
2017-11-20T06:19:39.721Z,7.90
2017-11-20T06:22:07.398Z,14.97
2017-11-20T06:24:35.110Z,8.73
2017-11-20T06:27:02.747Z,9.33
2017-11-20T06:29:30.436Z,11.37
2017-11-20T06:31:58.113Z,11.33
2017-11-20T06:34:25.803Z,9.90
2017-11-20T06:36:53.451Z,14.23
2017-11-20T06:39:21.194Z,16.37
2017-11-20T06:41:48.791Z,13.07
2017-11-20T06:44:16.510Z,12.60
2017-11-20T06:46:44.157Z,10.47
2017-11-20T06:49:11.865Z,10.87
2017-11-20T06:51:39.577Z,5.53
2017-11-20T06:54:07.280Z,13.57
2017-11-20T06:56:34.949Z,10.80
2017-11-20T06:59:02.638Z,11.07
2017-11-20T07:01:30.322Z,10.67
2017-11-20T07:03:58.021Z,7.67
2017-11-20T07:06:25.698Z,15.67
2017-11-20T07:08:53.351Z,9.83
2017-11-20T07:11:21.037Z,9.57
2017-11-20T07:13:48.697Z,6.70
2017-11-20T07:16:16.405Z,14.63
2017-11-20T07:18:44.068Z,12.30
2017-11-20T07:21:11.762Z,18.37
2017-11-20T07:23:39.441Z,11.07
2017-11-20T07:26:18.938Z,10.10
2017-11-20T07:28:58.384Z,16.57
2017-11-20T07:31:28.935Z,7.33
2017-11-20T07:34:08.138Z,9.00
2017-11-20T07:36:47.553Z,11.13
2017-11-20T07:39:34.778Z,13.10
2017-11-20T07:42:02.500Z,10.70
2017-11-20T07:44:30.154Z,17.77
2017-11-20T07:46:57.854Z,9.30
2017-11-20T07:49:25.497Z,16.00
2017-11-20T07:51:53.248Z,11.03
2017-11-20T07:54:20.903Z,12.03
2017-11-20T07:56:48.585Z,10.90
2017-11-20T07:59:16.236Z,9.83
2017-11-20T08:01:43.944Z,21.53
2017-11-20T08:04:11.593Z,12.23
2017-11-20T08:06:39.271Z,7.27
2017-11-20T08:09:07.805Z,10.97
2017-11-20T08:11:35.487Z,8.80
2017-11-20T08:14:03.078Z,8.30
2017-11-20T08:16:31.790Z,8.57
2017-11-20T08:18:59.456Z,5.03
2017-11-20T08:21:27.104Z,12.37
2017-11-20T08:23:54.790Z,6.23
2017-11-20T08:26:22.456Z,9.67
2017-11-20T08:28:50.154Z,8.60
2017-11-20T08:31:17.797Z,10.43
2017-11-20T08:33:45.485Z,9.93
2017-11-20T08:36:13.152Z,12.87
2017-11-20T08:38:40.865Z,9.67
2017-11-20T08:41:08.507Z,7.13
2017-11-20T08:43:36.206Z,11.07
2017-11-20T08:46:03.856Z,9.63
2017-11-20T08:48:31.543Z,9.70
2017-11-20T08:50:59.208Z,9.70
2017-11-20T08:53:26.930Z,8.83
2017-11-20T08:55:54.544Z,13.40
2017-11-20T08:58:22.240Z,7.13
2017-11-20T09:00:49.908Z,13.37
2017-11-20T09:03:17.609Z,11.80
2017-11-20T09:05:45.282Z,14.00
2017-11-20T09:08:12.891Z,8.87
2017-11-20T09:10:40.589Z,6.90
2017-11-20T09:13:08.273Z,10.80
2017-11-20T09:15:35.969Z,8.20
2017-11-20T09:18:03.650Z,10.47
2017-11-20T09:20:31.370Z,6.13
2017-11-20T09:22:59.047Z,6.33
2017-11-20T09:25:26.730Z,7.67
2017-11-20T09:27:54.390Z,6.13
2017-11-20T09:30:22.137Z,7.30
2017-11-20T09:32:49.799Z,6.10
2017-11-20T09:35:17.572Z,13.80
2017-11-20T09:37:45.224Z,6.20
2017-11-20T09:40:12.905Z,5.87
2017-11-20T09:42:40.556Z,6.27
2017-11-20T09:45:08.248Z,4.47
2017-11-20T09:47:35.871Z,10.37
2017-11-20T09:50:03.541Z,12.47
2017-11-20T09:52:31.175Z,5.87
2017-11-20T09:54:58.836Z,9.27
2017-11-20T09:57:26.508Z,6.60
2017-11-20T09:59:54.154Z,9.83
2017-11-20T10:02:21.863Z,8.00
2017-11-20T10:04:49.524Z,8.40
2017-11-20T10:07:17.230Z,8.40
2017-11-20T10:09:44.885Z,6.73
2017-11-20T10:12:12.625Z,6.97
2017-11-20T10:14:40.276Z,9.80
2017-11-20T10:17:08.009Z,7.67
2017-11-20T10:19:35.664Z,10.57
2017-11-20T10:22:03.360Z,6.73
2017-11-20T10:24:31.028Z,6.97
2017-11-20T10:26:58.752Z,10.37
2017-11-20T10:29:26.426Z,6.37
2017-11-20T10:31:54.148Z,8.23
2017-11-20T10:34:21.799Z,4.90
2017-11-20T10:36:49.536Z,11.17
2017-11-20T10:39:17.136Z,5.37
2017-11-20T10:41:44.876Z,6.80
2017-11-20T10:44:12.573Z,13.70
2017-11-20T10:46:40.236Z,8.07
2017-11-20T10:49:07.955Z,7.60
2017-11-20T10:51:36.479Z,7.90
2017-11-20T10:54:04.236Z,8.50
2017-11-20T10:56:31.916Z,6.50
2017-11-20T10:58:59.607Z,8.80
2017-11-20T11:01:27.253Z,6.73
2017-11-20T11:03:54.946Z,10.23
2017-11-20T11:06:22.634Z,11.80
2017-11-20T11:08:50.355Z,9.50
2017-11-20T11:11:18.030Z,9.03
2017-11-20T11:13:45.760Z,6.27
2017-11-20T11:16:13.416Z,5.73
2017-11-20T11:18:41.127Z,11.07
2017-11-20T11:21:08.795Z,7.83
2017-11-20T11:23:36.631Z,9.07
2017-11-20T11:26:04.338Z,5.43
2017-11-20T11:28:32.076Z,6.97
2017-11-20T11:30:59.738Z,9.10
2017-11-20T11:33:27.460Z,7.77
2017-11-20T11:35:55.155Z,8.07
2017-11-20T11:38:22.869Z,6.47
2017-11-20T11:40:50.534Z,6.73
2017-11-20T11:43:18.307Z,8.33
2017-11-20T11:45:45.990Z,7.50
2017-11-20T11:48:13.672Z,8.23
2017-11-20T11:50:41.370Z,9.40
2017-11-20T11:53:09.902Z,8.80
2017-11-20T11:55:37.604Z,5.33
2017-11-20T11:58:05.276Z,5.13
2017-11-20T12:00:32.966Z,6.10
2017-11-20T12:03:00.585Z,7.97
2017-11-20T12:05:28.287Z,12.20
2017-11-20T12:07:55.951Z,11.27
2017-11-20T12:10:23.674Z,4.77
2017-11-20T12:12:51.335Z,10.53
2017-11-20T12:15:19.042Z,4.27
2017-11-20T12:17:47.406Z,7.40
2017-11-20T12:20:15.122Z,5.93
2017-11-20T12:22:42.799Z,7.17
2017-11-20T12:25:10.510Z,9.97
2017-11-20T12:27:38.184Z,6.33
2017-11-20T12:30:05.967Z,7.73
2017-11-20T12:32:33.638Z,8.53
2017-11-20T12:35:01.338Z,7.40
2017-11-20T12:37:29.036Z,7.80
2017-11-20T12:39:56.699Z,5.30
2017-11-20T12:42:24.381Z,9.40
2017-11-20T12:44:52.037Z,8.10
2017-11-20T12:47:19.738Z,7.10
2017-11-20T12:49:47.451Z,8.63
2017-11-20T12:52:15.178Z,9.53
2017-11-20T12:54:42.843Z,9.63
2017-11-20T12:57:10.544Z,8.17
2017-11-20T12:59:38.220Z,8.83
2017-11-20T13:02:05.941Z,11.60
2017-11-20T13:04:33.613Z,13.10
2017-11-20T13:07:01.344Z,11.03
2017-11-20T13:09:29.007Z,8.77
2017-11-20T13:11:56.743Z,12.87
2017-11-20T13:14:24.424Z,7.33
2017-11-20T13:16:52.130Z,9.23
2017-11-20T13:19:19.850Z,11.43
2017-11-20T13:21:47.562Z,12.00
2017-11-20T13:24:15.258Z,11.43
2017-11-20T13:26:42.980Z,10.33
2017-11-20T13:29:10.647Z,13.10
2017-11-20T13:31:38.304Z,8.03
2017-11-20T13:34:06.004Z,9.17
2017-11-20T13:36:33.719Z,7.53
2017-11-20T13:39:01.407Z,8.33
2017-11-20T13:41:29.073Z,9.70
2017-11-20T13:43:56.778Z,9.83
2017-11-20T13:46:24.519Z,7.03
2017-11-20T13:48:52.304Z,6.27
2017-11-20T13:51:20.060Z,5.30
2017-11-20T13:53:47.765Z,7.43
2017-11-20T13:56:15.438Z,12.23
2017-11-20T13:58:43.147Z,6.10
2017-11-20T14:01:10.828Z,6.63
2017-11-20T14:03:38.598Z,10.53
2017-11-20T14:06:26.764Z,9.20
2017-11-20T14:08:54.515Z,8.13
2017-11-20T14:11:22.202Z,6.80
2017-11-20T14:13:49.899Z,9.20
2017-11-20T14:16:17.603Z,8.93
2017-11-20T14:18:46.123Z,7.47
2017-11-20T14:21:13.782Z,5.93
2017-11-20T14:23:41.475Z,5.97
2017-11-20T14:26:09.186Z,4.80
2017-11-20T14:28:36.858Z,6.00
2017-11-20T14:31:04.580Z,6.63
2017-11-20T14:33:32.286Z,7.60
2017-11-20T14:35:59.981Z,11.40
2017-11-20T14:38:27.672Z,6.77
2017-11-20T14:40:55.422Z,9.30
2017-11-20T14:43:23.118Z,8.77
2017-11-20T14:45:50.857Z,12.20
2017-11-20T14:48:20.123Z,10.87
2017-11-20T14:50:47.851Z,8.33
2017-11-20T14:53:37.408Z,4.50
2017-11-20T14:56:05.110Z,4.40
2017-11-20T14:58:32.784Z,5.57
2017-11-20T15:01:00.488Z,4.13
2017-11-20T15:03:28.165Z,3.23
2017-11-20T15:05:55.927Z,2.83
2017-11-20T15:08:23.651Z,6.00
2017-11-20T15:10:52.295Z,3.17
2017-11-20T15:13:19.988Z,3.30
2017-11-20T15:15:47.636Z,8.63
2017-11-20T15:18:15.333Z,5.07
2017-11-20T15:20:43.077Z,3.63
2017-11-20T15:23:10.883Z,5.20
2017-11-20T15:25:38.601Z,3.70
2017-11-20T15:28:06.320Z,4.20
2017-11-20T15:30:34.032Z,4.90
2017-11-20T15:33:01.739Z,8.70
2017-11-20T15:35:29.432Z,3.90
2017-11-20T15:37:57.144Z,5.13
2017-11-20T15:40:24.831Z,8.17
2017-11-20T15:42:52.513Z,5.63
2017-11-20T15:45:20.159Z,8.33
2017-11-20T15:47:47.863Z,5.40
2017-11-20T15:50:15.529Z,5.90
2017-11-20T15:52:43.274Z,6.80
2017-11-20T15:55:10.979Z,6.90
2017-11-20T15:57:38.661Z,8.17
2017-11-20T16:00:07.199Z,10.40
2017-11-20T16:02:34.897Z,8.20
2017-11-20T16:05:02.576Z,8.00
2017-11-20T16:07:30.302Z,8.27
2017-11-20T16:09:57.974Z,8.80
2017-11-20T16:12:25.639Z,9.53
2017-11-20T16:14:53.327Z,8.07
2017-11-20T16:17:20.999Z,11.30
2017-11-20T16:19:48.695Z,11.03
2017-11-20T16:22:16.358Z,11.13
2017-11-20T16:24:44.064Z,15.60
2017-11-20T16:27:11.733Z,9.80
2017-11-20T16:29:39.436Z,12.10
2017-11-20T16:32:07.031Z,11.50
2017-11-20T16:34:34.756Z,12.03
2017-11-20T16:37:02.461Z,11.40
2017-11-20T16:39:30.167Z,14.80
2017-11-20T16:41:57.859Z,11.63
2017-11-20T16:44:25.602Z,12.80
2017-11-20T16:46:53.264Z,13.73
2017-11-20T16:49:20.963Z,18.73
2017-11-20T16:51:48.693Z,14.87
2017-11-20T16:54:16.418Z,11.00
2017-11-20T16:57:04.804Z,13.80
2017-11-20T16:59:37.282Z,12.50
2017-11-20T17:02:30.456Z,12.53
2017-11-20T17:04:58.179Z,12.47
2017-11-20T17:07:25.865Z,15.37
2017-11-20T17:09:53.554Z,13.70
2017-11-20T17:12:21.227Z,14.37
2017-11-20T17:14:48.938Z,16.20
2017-11-20T17:17:16.617Z,14.23
2017-11-20T17:19:44.312Z,15.80
2017-11-20T17:22:11.989Z,14.17
2017-11-20T17:24:39.687Z,13.40
2017-11-20T17:27:07.358Z,16.10
2017-11-20T17:29:35.015Z,16.13
2017-11-20T17:32:02.718Z,14.80
2017-11-20T17:34:30.388Z,14.43
2017-11-20T17:36:58.092Z,18.50
2017-11-20T17:39:25.754Z,21.47
2017-11-20T17:41:53.481Z,19.53
2017-11-20T17:44:21.145Z,19.63
2017-11-20T17:46:48.788Z,17.33
2017-11-20T17:49:16.448Z,19.63
2017-11-20T17:51:44.172Z,17.93
2017-11-20T17:54:11.794Z,17.23
2017-11-20T17:56:39.499Z,18.83
2017-11-20T17:59:07.186Z,18.13
2017-11-20T18:01:35.164Z,16.30
2017-11-20T18:04:02.759Z,17.30
2017-11-20T18:06:30.402Z,18.73
2017-11-20T18:08:58.053Z,18.47
2017-11-20T18:11:25.675Z,16.97
2017-11-20T18:13:53.308Z,17.37
2017-11-20T18:16:20.987Z,19.70
2017-11-20T18:18:48.739Z,18.00
2017-11-20T18:21:16.409Z,20.90
2017-11-20T18:23:44.143Z,21.43
2017-11-20T18:26:11.754Z,20.20
2017-11-20T18:28:39.454Z,17.50
2017-11-20T18:31:07.152Z,18.50
2017-11-20T18:33:34.884Z,16.77
2017-11-20T18:36:02.584Z,20.27
2017-11-20T18:38:30.237Z,20.13
2017-11-20T18:40:57.896Z,20.00
2017-11-20T18:43:25.586Z,24.20
2017-11-20T18:45:53.210Z,18.50
2017-11-20T18:48:20.865Z,19.93
2017-11-20T18:50:48.516Z,19.90
2017-11-20T18:53:16.234Z,17.70
2017-11-20T18:55:43.950Z,17.53
2017-11-20T18:58:11.633Z,21.33
2017-11-20T19:00:50.998Z,22.47
2017-11-20T19:03:37.079Z,20.27
2017-11-20T19:09:12.546Z,19.80
2017-11-20T19:11:40.182Z,19.57
2017-11-20T19:14:07.854Z,18.17
2017-11-20T19:16:35.542Z,18.40
2017-11-20T19:19:03.224Z,18.97
2017-11-20T19:21:30.953Z,19.17
2017-11-20T19:23:58.694Z,18.50
2017-11-20T19:26:26.402Z,20.60
2017-11-20T19:28:54.109Z,23.20
2017-11-20T19:31:21.818Z,25.57
2017-11-20T19:33:49.509Z,24.50
2017-11-20T19:36:17.219Z,23.33
2017-11-20T19:38:44.821Z,23.63
2017-11-20T19:41:12.525Z,23.80
2017-11-20T19:43:40.203Z,25.00
2017-11-20T19:46:07.911Z,24.60
2017-11-20T19:48:35.595Z,27.20
2017-11-20T19:51:03.252Z,24.67
2017-11-20T19:53:30.954Z,26.73
2017-11-20T19:55:58.594Z,31.60
2017-11-20T19:58:26.292Z,32.33
2017-11-20T20:00:53.976Z,29.60
2017-11-20T20:03:21.626Z,45.90
2017-11-20T20:05:49.330Z,57.60
2017-11-20T20:08:17.013Z,31.00
2017-11-20T20:10:44.730Z,35.87
2017-11-20T20:13:12.395Z,29.47
2017-11-20T20:18:39.306Z,29.87
2017-11-20T20:21:07.009Z,29.73
2017-11-20T20:23:34.672Z,29.60
2017-11-20T20:26:02.348Z,28.33
2017-11-20T20:28:30.060Z,31.17
2017-11-20T20:30:57.723Z,29.67
2017-11-20T20:33:25.437Z,30.10
2017-11-20T20:35:53.111Z,29.77
2017-11-20T20:38:20.819Z,29.27
2017-11-20T20:40:48.475Z,32.20
2017-11-20T20:43:16.170Z,27.30
2017-11-20T20:45:43.862Z,27.33
2017-11-20T20:48:11.564Z,29.63
2017-11-20T20:50:39.233Z,30.10
2017-11-20T20:53:06.989Z,30.47
2017-11-20T20:55:34.652Z,33.33
2017-11-20T20:58:02.376Z,35.43
2017-11-20T21:00:30.049Z,28.10
2017-11-20T21:02:57.760Z,30.30
2017-11-20T21:05:25.419Z,30.07
2017-11-20T21:07:53.127Z,29.90
2017-11-20T21:10:26.335Z,30.00
2017-11-20T21:12:54.034Z,25.43
2017-11-20T21:15:21.723Z,28.60
2017-11-20T21:17:49.410Z,30.47
2017-11-20T21:20:17.103Z,28.00
2017-11-20T21:22:44.785Z,32.03
2017-11-20T21:25:12.479Z,29.93
2017-11-20T21:27:40.137Z,29.37
2017-11-20T21:30:07.843Z,27.73
2017-11-20T21:32:35.507Z,31.43
2017-11-20T21:35:03.231Z,27.80
2017-11-20T21:37:30.887Z,27.27
2017-11-20T21:39:58.522Z,31.93
2017-11-20T21:42:26.164Z,29.10
2017-11-20T21:44:53.844Z,28.10
2017-11-20T21:47:21.513Z,29.73
2017-11-20T21:49:49.165Z,28.40
2017-11-20T21:52:16.799Z,26.70
2017-11-20T21:54:44.462Z,30.07
2017-11-20T21:57:12.070Z,28.00
2017-11-20T21:59:39.738Z,32.30
2017-11-20T22:02:07.457Z,25.47
2017-11-20T22:04:35.130Z,28.83
2017-11-20T22:07:02.838Z,27.97
2017-11-20T22:09:30.529Z,27.30
2017-11-20T22:11:58.227Z,29.83
2017-11-20T22:14:25.892Z,30.57
2017-11-20T22:16:53.590Z,28.77
2017-11-20T22:19:21.257Z,31.60
2017-11-20T22:21:48.954Z,35.93
2017-11-20T22:24:16.612Z,33.50
2017-11-20T22:26:44.320Z,31.97
2017-11-20T22:29:12.000Z,34.40
2017-11-20T22:31:39.656Z,31.77
2017-11-20T22:34:07.323Z,30.93
2017-11-20T22:36:35.029Z,31.57
2017-11-20T22:39:02.687Z,31.00
2017-11-20T22:41:30.876Z,30.77
2017-11-20T22:43:58.539Z,28.03
2017-11-20T22:46:26.196Z,32.83
2017-11-20T22:48:53.834Z,29.50
2017-11-20T22:51:21.516Z,30.50
2017-11-20T22:53:49.255Z,28.90
2017-11-20T22:56:16.868Z,32.67
2017-11-20T22:58:44.581Z,34.33
2017-11-20T23:01:12.262Z,36.40
2017-11-20T23:03:40.048Z,36.47
2017-11-20T23:06:07.735Z,37.47
2017-11-20T23:08:35.368Z,38.00
2017-11-20T23:11:03.042Z,34.67
2017-11-20T23:13:30.755Z,33.37
2017-11-20T23:15:58.423Z,40.63
2017-11-20T23:18:26.157Z,36.50
2017-11-20T23:20:53.828Z,36.83
2017-11-20T23:23:21.485Z,38.13
2017-11-20T23:25:49.178Z,37.30
2017-11-20T23:28:16.851Z,33.77
2017-11-20T23:30:44.564Z,37.97
2017-11-20T23:33:12.217Z,34.37
2017-11-20T23:35:39.933Z,33.10
2017-11-20T23:38:07.609Z,36.40
2017-11-20T23:40:35.244Z,36.17
2017-11-20T23:43:02.908Z,37.87
2017-11-20T23:45:31.121Z,33.63
2017-11-20T23:47:58.771Z,38.53
2017-11-20T23:50:26.468Z,33.30
2017-11-20T23:52:54.169Z,36.90
2017-11-20T23:55:21.868Z,30.30
2017-11-20T23:57:49.541Z,37.87
